createdAt,value
2022-09-23T03:57:47.001Z,7.20
2022-09-23T04:00:49.985Z,6.00
2022-09-23T04:03:53.525Z,7.47
2022-09-23T04:06:56.616Z,8.10
2022-09-23T04:09:59.656Z,7.40
2022-09-23T04:13:02.070Z,5.97
2022-09-23T04:16:05.072Z,9.65
2022-09-23T04:19:11.749Z,7.12
2022-09-23T04:22:14.745Z,7.68
2022-09-23T04:25:17.271Z,8.32
2022-09-23T04:28:21.051Z,8.18
2022-09-23T04:31:23.918Z,7.75
2022-09-23T04:34:26.864Z,7.53
2022-09-23T04:37:29.513Z,7.25
2022-09-23T04:40:32.871Z,9.75
2022-09-23T04:43:35.694Z,8.75
2022-09-23T04:46:39.508Z,10.15
2022-09-23T04:49:42.183Z,8.75
2022-09-23T04:52:44.900Z,9.10
2022-09-23T04:55:47.490Z,7.10
2022-09-23T04:58:50.946Z,7.53
2022-09-23T05:01:55.428Z,8.18
2022-09-23T05:04:58.400Z,6.82
2022-09-23T05:08:00.999Z,6.25
2022-09-23T05:11:05.000Z,7.30
2022-09-23T05:14:07.593Z,12.68
2022-09-23T05:17:10.400Z,9.27
2022-09-23T05:20:13.614Z,6.15
2022-09-23T05:23:16.435Z,9.20
2022-09-23T05:26:18.971Z,9.05
2022-09-23T05:29:21.757Z,9.00
2022-09-23T05:32:27.076Z,8.55
2022-09-23T05:35:29.866Z,7.90
2022-09-23T05:38:35.396Z,8.48
2022-09-23T05:41:40.293Z,8.00
2022-09-23T05:44:43.017Z,6.53
2022-09-23T05:47:45.816Z,8.85
2022-09-23T05:50:52.046Z,7.97
2022-09-23T05:53:58.250Z,10.35
2022-09-23T05:57:04.199Z,8.75
2022-09-23T06:00:08.653Z,10.65
2022-09-23T06:03:18.940Z,6.97
2022-09-23T06:06:36.166Z,8.77
2022-09-23T06:09:38.746Z,7.72
2022-09-23T06:12:42.516Z,7.55
2022-09-23T06:15:45.456Z,9.45
2022-09-23T06:18:48.469Z,8.20
2022-09-23T06:21:50.935Z,7.32
2022-09-23T06:24:53.651Z,6.90
2022-09-23T06:27:56.542Z,8.48
2022-09-23T06:31:01.774Z,11.93
2022-09-23T06:34:11.684Z,8.50
2022-09-23T06:37:20.174Z,7.68
2022-09-23T06:40:23.328Z,8.73
2022-09-23T06:43:26.875Z,7.72
2022-09-23T06:46:31.295Z,8.48
2022-09-23T06:49:34.243Z,8.23
2022-09-23T06:52:36.762Z,8.98
2022-09-23T06:55:41.638Z,6.00
2022-09-23T06:58:44.447Z,7.95
2022-09-23T07:01:50.666Z,8.10
2022-09-23T07:04:56.581Z,11.95
2022-09-23T07:07:59.649Z,10.52
2022-09-23T07:11:05.024Z,8.32
2022-09-23T07:14:07.893Z,8.55
2022-09-23T07:17:10.582Z,8.25
2022-09-23T07:20:13.481Z,8.18
2022-09-23T07:23:17.805Z,6.90
2022-09-23T07:26:21.469Z,7.85
2022-09-23T07:29:23.965Z,7.72
2022-09-23T07:32:28.298Z,4.97
2022-09-23T07:35:32.996Z,6.95
2022-09-23T07:38:37.989Z,8.23
2022-09-23T07:41:44.923Z,6.95
2022-09-23T07:44:48.010Z,4.78
2022-09-23T07:47:50.746Z,4.10
2022-09-23T07:50:53.654Z,5.03
2022-09-23T07:53:56.749Z,7.82
2022-09-23T07:57:00.092Z,7.43
2022-09-23T08:00:03.886Z,10.25
2022-09-23T08:03:15.010Z,6.03
2022-09-23T08:06:17.816Z,4.70
2022-09-23T08:09:22.939Z,5.55
2022-09-23T08:12:25.713Z,7.05
2022-09-23T08:15:28.352Z,5.15
2022-09-23T08:18:31.268Z,6.03
2022-09-23T08:21:33.864Z,5.95
2022-09-23T08:24:36.610Z,4.75
2022-09-23T08:27:40.021Z,4.22
2022-09-23T08:30:44.573Z,5.68
2022-09-23T08:33:47.254Z,4.90
2022-09-23T08:36:52.300Z,4.62
2022-09-23T08:39:54.812Z,9.75
2022-09-23T08:42:57.948Z,3.60
2022-09-23T08:46:06.018Z,4.07
2022-09-23T08:49:12.617Z,5.45
2022-09-23T08:52:28.025Z,4.18
2022-09-23T08:55:53.867Z,4.95
2022-09-23T08:59:09.611Z,5.43
2022-09-23T09:02:20.598Z,6.32
2022-09-23T09:05:27.670Z,6.90
2022-09-23T09:08:36.844Z,4.37
2022-09-23T09:11:48.586Z,3.50
2022-09-23T09:15:06.961Z,5.57
2022-09-23T09:18:19.974Z,4.37
2022-09-23T09:21:33.398Z,4.18
2022-09-23T09:24:35.970Z,4.65
2022-09-23T09:27:41.257Z,5.57
2022-09-23T09:30:48.454Z,4.90
2022-09-23T09:34:13.274Z,3.85
2022-09-23T09:37:37.378Z,7.82
2022-09-23T09:40:46.630Z,3.47
2022-09-23T09:43:53.440Z,3.47
2022-09-23T09:47:20.819Z,4.75
2022-09-23T09:50:42.373Z,3.25
2022-09-23T09:53:45.404Z,3.83
2022-09-23T09:59:57.624Z,4.90
2022-09-23T10:03:21.031Z,5.05
2022-09-23T10:06:33.338Z,5.12
2022-09-23T10:09:37.898Z,6.03
2022-09-23T10:12:46.818Z,5.25
2022-09-23T10:15:50.037Z,4.87
2022-09-23T10:18:56.799Z,4.55
2022-09-23T10:22:05.387Z,3.55
2022-09-23T10:25:21.286Z,3.87
2022-09-23T10:28:48.724Z,3.83
2022-09-23T10:32:27.982Z,4.78
2022-09-23T10:35:33.469Z,8.30
2022-09-23T10:38:36.582Z,3.20
2022-09-23T10:42:07.597Z,3.70
2022-09-23T10:45:43.281Z,4.50
2022-09-23T10:49:08.994Z,3.95
2022-09-23T10:52:49.357Z,6.28
2022-09-23T10:56:16.390Z,4.82
2022-09-23T10:59:50.550Z,3.87
2022-09-23T11:03:27.732Z,4.55
2022-09-23T11:06:45.946Z,4.15
2022-09-23T11:10:18.561Z,3.95
2022-09-23T11:14:08.252Z,3.85
2022-09-23T11:17:55.801Z,2.90
2022-09-23T11:21:20.841Z,3.40
2022-09-23T11:24:36.297Z,3.90
2022-09-23T11:28:05.557Z,4.10
2022-09-23T11:31:33.653Z,4.28
2022-09-23T11:35:21.792Z,3.25
2022-09-23T11:38:35.373Z,5.25
2022-09-23T11:41:39.772Z,3.20
2022-09-23T11:44:49.922Z,2.70
2022-09-23T11:47:56.518Z,3.97
2022-09-23T11:51:06.020Z,3.35
2022-09-23T11:54:21.172Z,2.70
2022-09-23T11:57:46.792Z,3.75
2022-09-23T12:04:19.056Z,1.98
2022-09-23T12:07:30.112Z,2.28
2022-09-23T12:11:06.057Z,3.42
2022-09-23T12:14:33.769Z,2.85
2022-09-23T12:21:32.744Z,1.42
2022-09-23T12:25:06.903Z,2.28
2022-09-23T12:28:18.480Z,2.80
2022-09-23T12:31:31.836Z,2.90
2022-09-23T12:34:49.195Z,2.53
2022-09-23T12:37:53.138Z,2.25
2022-09-23T12:40:56.537Z,2.47
2022-09-23T12:44:15.308Z,1.65
2022-09-23T12:47:21.181Z,1.70
2022-09-23T12:50:54.355Z,2.17
2022-09-23T12:54:04.542Z,3.03
2022-09-23T12:57:34.449Z,1.98
2022-09-23T13:00:37.039Z,1.70
2022-09-23T13:04:18.637Z,2.20
2022-09-23T13:07:30.893Z,1.77
2022-09-23T13:10:55.447Z,2.45
2022-09-23T13:14:03.291Z,3.08
2022-09-23T13:20:20.730Z,2.35
2022-09-23T13:23:28.613Z,1.87
2022-09-23T13:26:32.510Z,3.60
2022-09-23T13:29:59.411Z,2.97
2022-09-23T13:33:16.970Z,4.72
2022-09-23T13:36:21.119Z,2.30
2022-09-23T13:39:25.854Z,5.07
2022-09-23T13:42:30.304Z,2.28
2022-09-23T13:45:38.063Z,3.03
2022-09-23T13:48:44.671Z,2.13
2022-09-23T13:51:47.259Z,2.87
2022-09-23T13:54:50.733Z,2.65
2022-09-23T13:58:32.463Z,3.83
2022-09-23T14:01:35.892Z,3.78
2022-09-23T14:04:38.964Z,2.55
2022-09-23T14:07:44.702Z,2.53
2022-09-23T14:10:48.045Z,3.90
2022-09-23T14:13:54.951Z,3.05
2022-09-23T14:16:58.689Z,3.80
2022-09-23T14:20:01.355Z,4.72
2022-09-23T14:23:12.789Z,4.18
2022-09-23T14:26:15.376Z,3.25
2022-09-23T14:29:26.102Z,2.20
2022-09-23T14:32:30.229Z,4.78
2022-09-23T14:35:48.582Z,3.50
2022-09-23T14:38:51.137Z,2.47
2022-09-23T14:41:54.105Z,3.75
2022-09-23T14:44:59.327Z,3.70
2022-09-23T14:48:18.938Z,2.60
2022-09-23T14:51:22.405Z,6.18
2022-09-23T14:55:00.748Z,4.12
2022-09-23T14:58:11.154Z,4.22
2022-09-23T15:01:32.565Z,2.58
2022-09-23T15:04:35.469Z,2.58
2022-09-23T15:07:38.534Z,4.03
2022-09-23T15:10:41.363Z,3.03
2022-09-23T15:13:49.378Z,2.53
2022-09-23T15:16:53.371Z,2.60
2022-09-23T15:20:08.899Z,2.65
2022-09-23T15:23:33.010Z,3.65
2022-09-23T15:26:38.793Z,4.15
2022-09-23T15:29:41.415Z,2.40
2022-09-23T15:32:45.625Z,3.25
2022-09-23T15:35:49.238Z,3.20
2022-09-23T15:38:53.221Z,2.58
2022-09-23T15:41:56.184Z,3.53
2022-09-23T15:45:00.688Z,3.10
2022-09-23T15:48:10.411Z,3.00
2022-09-23T15:51:15.618Z,2.62
2022-09-23T15:54:19.435Z,2.80
2022-09-23T15:57:22.262Z,2.47
2022-09-23T16:00:25.031Z,3.40
